Airfield :







YOU CAN JOIN US ON...

 
LOGIN :

Register | Disclaimer

   EN    FR    IT 

 









Legend :    VFR   Marginal VFR   IFR   Intensive IFR   Very Intensive IFR
Visi :
Ceiling :
>= 8 km
>= 3000ft
5 to 8 km
1000 to 3000 ft
1500m to 5 km
500 to 1000 ft
800 to 1500m
200 to 500 ft
< 800m
< 200 ft
Symbols :   Thunderstorms  Fog  Heavy snow  Heavy precipitations  Wind > 20 kt






- Airport Elevation : 76 ft
- IATA code : EGS


BIEG - Egilsstaðir

CURRENT METAR :
  • 100400Z 35013KT 9999 SCT024 BKN035 OVC046 01/00 Q0971 R04/790191 RMK WIND GAGNHEIDI 09012KT

EXPIRED METARs :
  • 100300Z 35016KT 9999 -RA SCT016 BKN025 OVC049 02/M01 Q0974 R04/790191 RMK WIND GAGNHEIDI 09021G36KT

TAF TAF BIEG
Valid from the 10 at 03:00 until the 11 at 03:00 UTC


100135Z 1003/1103 10020G35KT 5000 -SNRA FEW008 BKN012 OVC025 TX02/1003Z TNM05/1020Z
TEMPO 1003/1007 1200 SN BKN005 OVC010
BECMG 1007/1009 20015G25KT 9999 NSW FEW030 SCT050
BECMG 1022/1100 35017G27KT 5000 DRSN BKN012 OVC020
BECMG 1100/1103 35030G45KT 0700 BLSN VV002



MET'MAP, your aeronautical weather chart ! - Copyright ORBIFLY December 2007 - Disclaimer

ORBIFLY MET'MAP TEAM :

Programming & Development : Alexandra Zaïnal
Concept & original design : Baudouin d'Aumeries
Assistance for programming : Marc-Olivier Méhu
Technical & hardware support : Manuel Goepfert

Contact : metmap@orbifly.com




SOURCES & CREDITS :

   NOAA